Atlas, Pennsylvania
Current Conditions -  °F | °C
As of 7:53 AM on Saturday 01 Nov 2014 (Local Time) from KSEG Reporting Station
Overcast Overcast  
Wind Chill: 42°   Ceiling: 3000
Heat Index: 47°   Visibility: 10mi
Dew Point: 36°   Wind: 10mph
Humidity: 66%   Direction: 360°N
Pressure: 29.9"   Gusts: NA
Location:  40.7952°N, 76.4365°W
Report Text: KSEG 011153Z AUTO 36009KT 10SM OVC030 08/02 A2990 RMK AO2 SLP126 60000 T00830022 10083 20072 53017
Loading
Personal Weather Stations






























Interactive Weather Map
Tropical Storm Tracking
New forecast layout! Learn more

10-Day Weather Forecast

Advertisements
Track Severe Weather on mobile